createdAt,value
2017-02-23T00:00:26.466Z,88.84
2017-02-23T00:01:37.166Z,89.4
2017-02-23T00:02:47.881Z,88.89
2017-02-23T00:03:58.174Z,89.64
2017-02-23T00:05:08.896Z,90.02
2017-02-23T00:06:19.616Z,89.83
2017-02-23T00:07:30.297Z,90.02
2017-02-23T00:08:41.009Z,89.92
2017-02-23T00:09:51.718Z,90.59
2017-02-23T00:11:04.417Z,90.02
2017-02-23T00:12:14.716Z,89.36
2017-02-23T00:13:25.433Z,89.07
2017-02-23T00:14:36.135Z,90.11
2017-02-23T00:15:46.828Z,89.07
2017-02-23T00:16:57.546Z,89.36
2017-02-23T00:18:08.241Z,89.26
2017-02-23T00:19:18.538Z,90.21
2017-02-23T00:20:29.228Z,90.4
2017-02-23T00:21:39.936Z,91.06
2017-02-23T00:22:50.636Z,91.82
2017-02-23T00:24:01.335Z,91.82
2017-02-23T00:25:11.641Z,92.19
2017-02-23T00:26:22.337Z,92.29
2017-02-23T00:27:33.068Z,90.3
2017-02-23T00:28:43.768Z,90.96
2017-02-23T00:29:54.456Z,91.15
2017-02-23T00:31:05.153Z,91.44
2017-02-23T00:32:14.658Z,92.19
2017-02-23T00:33:25.366Z,92.38
2017-02-23T00:34:36.066Z,91.72
2017-02-23T00:35:46.763Z,91.15
2017-02-23T00:36:57.450Z,91.82
2017-02-23T00:38:07.402Z,91.25
2017-02-23T00:39:18.115Z,92
2017-02-23T00:40:28.908Z,91.82
2017-02-23T00:41:39.624Z,90.96
2017-02-23T00:42:50.303Z,91.25
2017-02-23T00:44:00.621Z,91.25
2017-02-23T00:45:11.315Z,91.15
2017-02-23T00:46:22.006Z,91.25
2017-02-23T00:47:32.708Z,91.06
2017-02-23T00:48:43.397Z,90.45
2017-02-23T00:49:53.298Z,90.16
2017-02-23T00:51:03.995Z,89.31
2017-02-23T00:52:14.285Z,90.64
2017-02-23T00:53:25.014Z,91.2
2017-02-23T00:54:35.720Z,91.2
2017-02-23T00:55:46.422Z,92.52
2017-02-23T00:56:56.727Z,92.61
2017-02-23T00:58:07.434Z,92.9
2017-02-23T00:59:18.120Z,92.14
2017-02-23T01:00:28.828Z,91.49
2017-02-23T01:01:39.532Z,92.14
2017-02-23T01:02:50.251Z,91.77
2017-02-23T01:04:00.942Z,91.11
2017-02-23T01:05:11.657Z,91.01
2017-02-23T01:06:21.957Z,91.11
2017-02-23T01:07:32.664Z,91.39
2017-02-23T01:08:43.360Z,91.58
2017-02-23T01:09:54.043Z,91.67
2017-02-23T01:11:04.733Z,90.92
2017-02-23T01:12:15.042Z,91.3
2017-02-23T01:13:25.759Z,91.39
2017-02-23T01:14:36.466Z,91.39
2017-02-23T01:15:47.152Z,91.39
2017-02-23T01:16:57.850Z,91.11
2017-02-23T01:18:08.153Z,91.58
2017-02-23T01:19:18.453Z,91.3
2017-02-23T01:20:29.163Z,91.67
2017-02-23T01:21:39.856Z,91.58
2017-02-23T01:22:50.567Z,91.96
2017-02-23T01:24:01.265Z,92.14
2017-02-23T01:25:11.969Z,91.67
2017-02-23T01:26:22.664Z,91.01
2017-02-23T01:27:33.356Z,91.01
2017-02-23T01:28:44.045Z,90.35
2017-02-23T01:29:54.749Z,90.26
2017-02-23T01:31:05.477Z,88.65
2017-02-23T01:32:15.419Z,87.62
2017-02-23T01:33:26.126Z,87.71
2017-02-23T01:34:36.812Z,86.95
2017-02-23T01:35:47.538Z,88.75
2017-02-23T01:36:58.242Z,89.31
2017-02-23T01:38:08.547Z,88.93
2017-02-23T01:39:19.245Z,88.65
2017-02-23T01:40:29.956Z,88.93
2017-02-23T01:41:40.667Z,88.65
2017-02-23T01:42:51.000Z,89.03
2017-02-23T01:44:01.712Z,87.28
2017-02-23T01:45:12.021Z,87.09
2017-02-23T01:46:21.540Z,87.47
2017-02-23T01:47:32.246Z,87.18
2017-02-23T01:48:42.956Z,87.56
2017-02-23T01:49:53.262Z,86.99
2017-02-23T01:51:03.962Z,86.9
2017-02-23T01:52:14.305Z,86.15
2017-02-23T01:53:24.600Z,84.92
2017-02-23T01:54:35.297Z,85.3
2017-02-23T01:55:45.995Z,84.45
2017-02-23T01:56:56.689Z,84.64
2017-02-23T01:58:07.417Z,84.64
2017-02-23T01:59:18.124Z,85.11
2017-02-23T02:00:28.823Z,84.82
2017-02-23T02:01:39.516Z,83.78
2017-02-23T02:02:49.425Z,83.69
2017-02-23T02:04:00.138Z,84.26
2017-02-23T02:05:10.443Z,84.64
2017-02-23T02:06:21.178Z,84.54
2017-02-23T02:07:31.697Z,84.64
2017-02-23T02:08:42.398Z,84.54
2017-02-23T02:09:53.092Z,84.92
2017-02-23T02:11:03.416Z,84.54
2017-02-23T02:12:14.151Z,84.82
2017-02-23T02:13:24.841Z,85.11
2017-02-23T02:14:35.580Z,85.77
2017-02-23T02:15:46.273Z,86.05
2017-02-23T02:16:56.973Z,86.05
2017-02-23T02:18:07.272Z,86.52
2017-02-23T02:19:17.576Z,86.15
2017-02-23T02:20:28.281Z,86.9
2017-02-23T02:21:38.981Z,86.33
2017-02-23T02:22:49.680Z,86.33
2017-02-23T02:24:00.381Z,86.71
2017-02-23T02:25:11.091Z,87.28
2017-02-23T02:26:21.399Z,86.71
2017-02-23T02:27:32.123Z,86.52
2017-02-23T02:28:42.823Z,87.28
2017-02-23T02:29:53.131Z,87.47
2017-02-23T02:31:03.835Z,87.47
2017-02-23T02:32:14.548Z,87.28
2017-02-23T02:33:25.247Z,86.9
2017-02-23T02:34:35.960Z,85.86
2017-02-23T02:35:46.662Z,85.58
2017-02-23T02:36:57.358Z,85.49
2017-02-23T02:38:07.661Z,85.2
2017-02-23T02:39:50.047Z,84.82
2017-02-23T02:41:00.746Z,84.45
2017-02-23T02:42:11.039Z,84.35
2017-02-23T02:43:21.777Z,84.16
2017-02-23T02:44:32.479Z,83.5
2017-02-23T02:45:43.173Z,83.22
2017-02-23T02:46:53.476Z,83.5
2017-02-23T02:48:04.172Z,83.22
2017-02-23T02:49:14.066Z,82.93
2017-02-23T02:50:24.358Z,82.84
2017-02-23T02:51:35.058Z,83.22
2017-02-23T02:52:45.775Z,83.03
2017-02-23T02:53:56.493Z,82.28
2017-02-23T02:55:07.193Z,82.75
2017-02-23T02:56:17.113Z,83.03
2017-02-23T02:57:27.807Z,82.46
2017-02-23T02:58:38.513Z,82.28
2017-02-23T02:59:49.201Z,82.28
2017-02-23T03:00:59.901Z,82.28
2017-02-23T03:02:10.200Z,82.84
2017-02-23T03:03:20.508Z,83.03
2017-02-23T03:04:31.217Z,83.12
2017-02-23T03:05:41.920Z,82.84
2017-02-23T03:06:52.364Z,82.93
2017-02-23T03:08:03.099Z,82.93
2017-02-23T03:09:13.412Z,83.59
2017-02-23T03:10:23.729Z,83.31
2017-02-23T03:11:34.438Z,83.31
2017-02-23T03:12:45.136Z,83.78
2017-02-23T03:13:55.455Z,83.59
2017-02-23T03:15:06.156Z,84.07
2017-02-23T03:16:16.472Z,83.78
2017-02-23T03:17:27.164Z,84.07
2017-02-23T03:18:37.857Z,83.4
2017-02-23T03:19:47.845Z,84.07
2017-02-23T03:20:58.563Z,84.16
2017-02-23T03:22:09.276Z,83.69
2017-02-23T03:23:19.992Z,83.97
2017-02-23T03:24:30.684Z,83.88
2017-02-23T03:25:41.370Z,84.35
2017-02-23T03:26:52.087Z,83.97
2017-02-23T03:28:02.790Z,83.97
2017-02-23T03:29:13.100Z,84.54
2017-02-23T03:30:23.407Z,84.54
2017-02-23T03:31:34.091Z,84.54
2017-02-23T03:32:44.786Z,85.39
2017-02-23T03:33:55.496Z,84.92
2017-02-23T03:35:05.822Z,85.11
2017-02-23T03:36:15.721Z,85.58
2017-02-23T03:37:26.431Z,85.3
2017-02-23T03:38:37.131Z,85.06
2017-02-23T03:39:47.817Z,85.44
2017-02-23T03:40:58.499Z,85.35
2017-02-23T03:42:09.202Z,85.53
2017-02-23T03:43:19.912Z,84.41
2017-02-23T03:44:30.624Z,84.41
2017-02-23T03:45:41.338Z,84.69
2017-02-23T03:46:51.649Z,85.16
2017-02-23T03:48:02.335Z,85.91
2017-02-23T03:49:13.023Z,85.06
2017-02-23T03:50:22.918Z,84.31
2017-02-23T03:51:33.637Z,84.78
2017-02-23T03:52:44.003Z,84.64
2017-02-23T03:53:54.298Z,84.82
2017-02-23T03:55:05.001Z,84.07
2017-02-23T03:56:14.895Z,82.93
2017-02-23T03:57:25.594Z,82.93
2017-02-23T03:58:36.302Z,82.93
2017-02-23T03:59:47.013Z,82.93
2017-02-23T04:00:57.320Z,83.59
2017-02-23T04:02:08.031Z,83.5
2017-02-23T04:03:18.330Z,83.69
2017-02-23T04:04:28.633Z,83.97
2017-02-23T04:05:39.324Z,83.78
2017-02-23T04:06:49.632Z,84.35
2017-02-23T04:08:00.343Z,83.88
2017-02-23T04:09:10.642Z,84.64
2017-02-23T04:10:20.955Z,84.16
2017-02-23T04:11:31.675Z,85.11
2017-02-23T04:12:42.362Z,84.82
2017-02-23T04:13:53.074Z,85.3
2017-02-23T04:15:03.765Z,85.01
2017-02-23T04:16:14.072Z,84.45
2017-02-23T04:17:23.987Z,83.78
2017-02-23T04:18:34.689Z,84.54
2017-02-23T04:19:45.407Z,84.64
2017-02-23T04:20:56.117Z,84.54
2017-02-23T04:22:06.822Z,84.45
2017-02-23T04:23:17.505Z,84.69
2017-02-23T04:24:28.198Z,85.16
2017-02-23T04:25:38.897Z,85.44
2017-02-23T04:26:49.198Z,85.16
2017-02-23T04:27:59.900Z,85.63
2017-02-23T04:29:10.592Z,85.16
2017-02-23T04:30:20.917Z,84.59
2017-02-23T04:31:31.236Z,84.5
2017-02-23T04:32:41.943Z,83.84
2017-02-23T04:33:52.255Z,83.55
2017-02-23T04:35:02.965Z,83.17
2017-02-23T04:36:12.894Z,82.89
2017-02-23T04:37:23.645Z,82.32
2017-02-23T04:38:34.345Z,82.89
2017-02-23T04:39:44.661Z,82.7
2017-02-23T04:40:55.350Z,81.85
2017-02-23T04:42:05.647Z,81.38
2017-02-23T04:43:15.953Z,82.14
2017-02-23T04:44:26.665Z,81.29
2017-02-23T04:45:37.368Z,80.25
2017-02-23T04:46:48.072Z,79.78
2017-02-23T04:47:58.776Z,79.78
2017-02-23T04:49:09.484Z,79.59
2017-02-23T04:50:20.170Z,79.78
2017-02-23T04:51:30.491Z,79.68
2017-02-23T04:52:41.187Z,79.78
2017-02-23T04:53:51.498Z,79.68
2017-02-23T04:55:02.181Z,80.91
2017-02-23T04:56:12.879Z,81.2
2017-02-23T04:57:23.579Z,81.85
2017-02-23T04:58:34.305Z,81.48
2017-02-23T04:59:44.213Z,81.57
2017-02-23T05:00:54.906Z,81.48
2017-02-23T05:02:05.605Z,81.48
2017-02-23T05:03:16.317Z,81.1
2017-02-23T05:04:27.013Z,78.74
2017-02-23T05:05:37.713Z,78.92
2017-02-23T05:06:47.614Z,79.02
2017-02-23T05:07:57.905Z,79.78
2017-02-23T05:09:08.616Z,78.36
2017-02-23T05:10:18.910Z,78.45
2017-02-23T05:11:29.199Z,78.55
2017-02-23T05:12:39.888Z,78.55
2017-02-23T05:13:50.612Z,79.02
2017-02-23T05:15:01.298Z,79.78
2017-02-23T05:16:12.002Z,79.87
2017-02-23T05:17:22.701Z,79.21
2017-02-23T05:18:33.384Z,79.3
2017-02-23T05:19:44.079Z,78.36
2017-02-23T05:20:54.807Z,77.8
2017-02-23T05:22:05.114Z,78.08
2017-02-23T05:23:15.006Z,77.51
2017-02-23T05:24:25.702Z,77.98
2017-02-23T05:25:36.405Z,77.37
2017-02-23T05:26:47.106Z,77.56
2017-02-23T05:27:57.415Z,77.37
2017-02-23T05:29:08.117Z,77.19
2017-02-23T05:30:18.816Z,76.53
2017-02-23T05:31:29.513Z,76.15
2017-02-23T05:32:40.216Z,76.53
2017-02-23T05:33:50.917Z,76.06
2017-02-23T05:35:01.634Z,75.4
2017-02-23T05:36:12.337Z,75.68
2017-02-23T05:37:22.646Z,74.64
2017-02-23T05:38:32.963Z,74.74
2017-02-23T05:39:44.010Z,74.36
2017-02-23T05:40:54.313Z,73.69
2017-02-23T05:42:05.022Z,72.56
2017-02-23T05:43:15.327Z,72.75
2017-02-23T05:44:26.042Z,72.09
2017-02-23T05:45:36.749Z,71.43
2017-02-23T05:46:47.046Z,71.34
2017-02-23T05:47:57.365Z,70.77
2017-02-23T05:49:08.051Z,70.49
2017-02-23T05:50:18.355Z,70.68
2017-02-23T05:51:29.054Z,69.83
2017-02-23T05:52:39.759Z,69.54
2017-02-23T05:53:50.447Z,69.35
2017-02-23T05:55:00.751Z,69.64
2017-02-23T05:56:11.467Z,69.35
2017-02-23T05:57:22.176Z,69.07
2017-02-23T05:58:32.857Z,69.35
2017-02-23T05:59:43.593Z,69.17
2017-02-23T06:00:54.279Z,69.07
2017-02-23T06:02:04.987Z,68.88
2017-02-23T06:03:15.688Z,68.79
2017-02-23T06:04:26.407Z,68.88
2017-02-23T06:05:37.111Z,69.54
2017-02-23T06:06:47.399Z,68.79
2017-02-23T06:07:57.707Z,68.23
2017-02-23T06:09:08.010Z,69.17
2017-02-23T06:10:18.698Z,69.45
2017-02-23T06:11:29.383Z,68.79
2017-02-23T06:12:40.074Z,68.51
2017-02-23T06:13:50.778Z,68.41
2017-02-23T06:15:01.492Z,68.32
2017-02-23T06:16:12.199Z,67.85
2017-02-23T06:17:22.893Z,68.23
2017-02-23T06:18:33.617Z,67.85
2017-02-23T06:19:43.931Z,68.23
2017-02-23T06:20:54.654Z,68.41
2017-02-23T06:22:05.373Z,68.6
2017-02-23T06:23:15.678Z,68.98
2017-02-23T06:24:26.379Z,68.23
2017-02-23T06:25:36.693Z,67.94
2017-02-23T06:26:47.002Z,68.04
2017-02-23T06:27:57.312Z,67.47
2017-02-23T06:29:08.049Z,68.23
2017-02-23T06:30:17.963Z,67.66
2017-02-23T06:31:28.675Z,68.51
2017-02-23T06:32:39.020Z,67.38
2017-02-23T06:33:49.728Z,66.34
2017-02-23T06:35:00.437Z,66.15
2017-02-23T06:36:11.140Z,66.62
2017-02-23T06:37:21.842Z,66.81
2017-02-23T06:38:32.533Z,66.71
2017-02-23T06:39:43.225Z,67
2017-02-23T06:40:53.927Z,66.9
2017-02-23T06:42:04.227Z,66.81
2017-02-23T06:43:14.527Z,67.28
2017-02-23T06:44:25.213Z,66.9
2017-02-23T06:45:35.902Z,67.85
2017-02-23T06:46:46.610Z,67.57
2017-02-23T06:47:57.334Z,67.47
2017-02-23T06:49:08.034Z,67.57
2017-02-23T06:50:18.720Z,67.85
2017-02-23T06:51:29.417Z,67.66
2017-02-23T06:52:39.329Z,67.38
2017-02-23T06:53:50.035Z,66.62
2017-02-23T06:55:00.335Z,66.43
2017-02-23T06:56:10.650Z,66.43
2017-02-23T06:57:20.547Z,66.34
2017-02-23T06:58:31.248Z,66.43
2017-02-23T06:59:41.949Z,67.28
2017-02-23T07:00:52.245Z,66.62
2017-02-23T07:02:02.943Z,66.34
2017-02-23T07:03:13.245Z,66.34
2017-02-23T07:04:23.561Z,66.34
2017-02-23T07:05:34.271Z,66.62
2017-02-23T07:06:44.570Z,66.52
2017-02-23T07:07:55.256Z,66.43
2017-02-23T07:09:05.565Z,65.96
2017-02-23T07:10:15.482Z,66.15
2017-02-23T07:11:26.175Z,66.24
2017-02-23T07:12:36.900Z,66.05
2017-02-23T07:13:47.616Z,66.05
2017-02-23T07:14:58.310Z,65.86
2017-02-23T07:16:08.602Z,66.52
2017-02-23T07:17:19.301Z,66.81
2017-02-23T07:18:30.004Z,66.34
2017-02-23T07:19:43.001Z,66.24
2017-02-23T07:20:53.693Z,66.05
2017-02-23T07:22:04.398Z,65.48
2017-02-23T07:23:14.709Z,65.86
2017-02-23T07:24:25.404Z,65.2
2017-02-23T07:25:36.100Z,64.83
2017-02-23T07:26:45.994Z,65.01
2017-02-23T07:27:56.699Z,64.54
2017-02-23T07:29:07.399Z,64.48
2017-02-23T07:30:18.103Z,64.54
2017-02-23T07:31:28.803Z,63.92
2017-02-23T07:32:38.713Z,64.01
2017-02-23T07:33:49.017Z,64.01
2017-02-23T07:34:59.730Z,63.92
2017-02-23T07:36:10.434Z,63.92
2017-02-23T07:37:20.742Z,62.5
2017-02-23T07:38:31.436Z,63.16
2017-02-23T07:39:42.153Z,64.2
2017-02-23T07:40:52.487Z,63.92
2017-02-23T07:42:03.199Z,63.73
2017-02-23T07:43:13.505Z,63.45
2017-02-23T07:44:24.216Z,63.63
2017-02-23T07:45:34.512Z,63.26
2017-02-23T07:46:45.213Z,63.63
2017-02-23T07:47:55.520Z,63.54
2017-02-23T07:49:06.234Z,63.35
2017-02-23T07:50:16.947Z,63.35
2017-02-23T07:51:27.237Z,63.07
2017-02-23T07:52:37.928Z,63.45
2017-02-23T07:53:48.235Z,63.54
2017-02-23T07:54:58.942Z,63.54
2017-02-23T07:56:09.649Z,63.54
2017-02-23T07:57:19.952Z,64.39
2017-02-23T07:58:30.646Z,64.86
2017-02-23T07:59:41.379Z,64.39
2017-02-23T08:00:52.082Z,64.48
2017-02-23T08:02:02.782Z,64.48
2017-02-23T08:03:13.113Z,64.01
2017-02-23T08:04:23.824Z,63.63
2017-02-23T08:05:34.115Z,63.63
2017-02-23T08:06:44.409Z,63.73
2017-02-23T08:07:55.103Z,64.29
2017-02-23T08:09:05.392Z,64.11
2017-02-23T08:10:15.691Z,64.67
2017-02-23T08:11:25.618Z,65.05
2017-02-23T08:12:35.923Z,64.95
2017-02-23T08:13:46.621Z,64.58
2017-02-23T08:14:57.310Z,64.58
2017-02-23T08:16:07.620Z,64.58
2017-02-23T08:17:17.928Z,64.11
2017-02-23T08:18:28.768Z,64.58
2017-02-23T08:19:39.477Z,64.58
2017-02-23T08:20:50.188Z,64.67
2017-02-23T08:22:00.883Z,64.58
2017-02-23T08:23:11.191Z,64.2
2017-02-23T08:24:21.887Z,64.11
2017-02-23T08:25:31.784Z,64.48
2017-02-23T08:26:42.485Z,64.2
2017-02-23T08:27:52.786Z,64.95
2017-02-23T08:29:03.498Z,65.8
2017-02-23T08:30:14.200Z,65.71
2017-02-23T08:31:24.508Z,65.61
2017-02-23T08:32:35.213Z,64.95
2017-02-23T08:33:45.912Z,64.95
2017-02-23T08:34:56.632Z,65.05
2017-02-23T08:36:07.360Z,64.86
2017-02-23T08:37:17.667Z,64.58
2017-02-23T08:38:28.368Z,64.67
2017-02-23T08:39:38.669Z,63.26
2017-02-23T08:40:49.361Z,63.54
2017-02-23T08:41:59.667Z,62.4
2017-02-23T08:43:10.373Z,62.21
2017-02-23T08:44:21.075Z,62.21
2017-02-23T08:45:31.781Z,62.59
2017-02-23T08:46:42.478Z,62.31
2017-02-23T08:47:52.787Z,62.5
2017-02-23T08:49:03.490Z,62.69
2017-02-23T08:50:14.192Z,62.31
2017-02-23T08:51:24.891Z,62.59
2017-02-23T08:52:35.604Z,62.4
2017-02-23T08:53:45.904Z,62.5
2017-02-23T08:54:56.600Z,63.26
2017-02-23T08:56:06.915Z,63.07
2017-02-23T08:57:16.816Z,63.16
2017-02-23T08:58:27.527Z,63.45
2017-02-23T08:59:38.227Z,63.26
2017-02-23T09:00:48.939Z,63.82
2017-02-23T09:01:59.701Z,63.82
2017-02-23T09:03:10.003Z,64.58
2017-02-23T09:04:19.916Z,64.39
2017-02-23T09:05:30.623Z,64.29
2017-02-23T09:06:40.930Z,64.39
2017-02-23T09:07:51.640Z,64.11
2017-02-23T09:09:02.329Z,64.58
2017-02-23T09:10:13.046Z,65.05
2017-02-23T09:11:23.753Z,64.95
2017-02-23T09:12:34.043Z,65.23
2017-02-23T09:13:44.768Z,65.8
2017-02-23T09:14:55.476Z,65.33
2017-02-23T09:16:05.786Z,66.09
2017-02-23T09:17:16.502Z,66.37
2017-02-23T09:18:27.211Z,66.75
2017-02-23T09:19:37.921Z,66.28
2017-02-23T09:20:48.610Z,63.19
2017-02-23T09:21:59.302Z,62.06
2017-02-23T09:23:10.008Z,61.21
2017-02-23T09:24:20.308Z,61.21
2017-02-23T09:25:31.033Z,61.49
2017-02-23T09:26:41.783Z,61.49
2017-02-23T09:27:52.489Z,61.08
2017-02-23T09:29:03.188Z,61.65
2017-02-23T09:30:13.902Z,61.87
2017-02-23T09:31:24.217Z,61.87
2017-02-23T09:32:34.919Z,61.49
2017-02-23T09:33:45.265Z,61.58
2017-02-23T09:34:56.013Z,61.3
2017-02-23T09:36:06.334Z,61.3
2017-02-23T09:37:17.031Z,62.25
2017-02-23T09:38:27.737Z,61.77
2017-02-23T09:39:38.455Z,61.58
2017-02-23T09:40:48.750Z,61.77
2017-02-23T09:41:59.064Z,62.15
2017-02-23T09:43:09.766Z,62.44
2017-02-23T09:44:20.473Z,61.77
2017-02-23T09:45:31.163Z,61.4
2017-02-23T09:46:41.867Z,61.77
2017-02-23T09:47:52.573Z,61.58
2017-02-23T09:49:03.279Z,61.02
2017-02-23T09:50:13.203Z,61.21
2017-02-23T09:51:23.899Z,61.21
2017-02-23T09:52:34.225Z,61.4
2017-02-23T09:53:44.527Z,61.58
2017-02-23T09:54:55.244Z,60.17
2017-02-23T09:56:05.950Z,59.6
2017-02-23T09:57:15.465Z,60.67
2017-02-23T09:58:26.166Z,61.8
2017-02-23T09:59:36.860Z,60.2
2017-02-23T10:00:47.565Z,60.01
2017-02-23T10:01:57.902Z,59.92
2017-02-23T10:03:08.222Z,59.82
2017-02-23T10:04:18.909Z,59.63
2017-02-23T10:05:29.622Z,57.74
2017-02-23T10:06:40.318Z,57.74
2017-02-23T10:07:51.004Z,57.65
2017-02-23T10:09:01.703Z,57.37
2017-02-23T10:10:12.395Z,57.74
2017-02-23T10:11:23.094Z,56.99
2017-02-23T10:12:33.791Z,57.08
2017-02-23T10:13:43.693Z,55.85
2017-02-23T10:14:54.385Z,55.76
2017-02-23T10:16:05.085Z,55.66
2017-02-23T10:17:15.796Z,56.04
2017-02-23T10:18:26.493Z,56.42
2017-02-23T10:19:37.187Z,56.7
2017-02-23T10:20:47.879Z,56.61
2017-02-23T10:21:58.594Z,56.61
2017-02-23T10:23:08.893Z,56.7
2017-02-23T10:24:19.593Z,56.99
2017-02-23T10:25:29.511Z,58.22
2017-02-23T10:26:40.217Z,58.03
2017-02-23T10:27:50.926Z,58.87
2017-02-23T10:29:01.623Z,59.54
2017-02-23T10:30:12.360Z,58.22
2017-02-23T10:31:23.058Z,58.31
2017-02-23T10:32:33.770Z,59.54
2017-02-23T10:33:44.482Z,59.35
2017-02-23T10:34:54.804Z,59.44
2017-02-23T10:36:05.500Z,58.69
2017-02-23T10:37:15.803Z,59.73
2017-02-23T10:38:26.504Z,59.35
2017-02-23T10:39:36.792Z,59.54
2017-02-23T10:40:47.505Z,57.84
2017-02-23T10:41:58.221Z,58.59
2017-02-23T10:43:08.928Z,60.04
2017-02-23T10:44:19.618Z,59.85
2017-02-23T10:45:29.927Z,58.91
2017-02-23T10:46:40.617Z,58.53
2017-02-23T10:47:51.329Z,58.62
2017-02-23T10:49:02.039Z,58.15
2017-02-23T10:50:12.355Z,57.77
2017-02-23T10:51:22.663Z,56.54
2017-02-23T10:52:33.381Z,56.73
2017-02-23T10:53:44.071Z,57.11
2017-02-23T10:54:54.776Z,57.96
2017-02-23T10:56:05.481Z,57.39
2017-02-23T10:57:15.400Z,57.96
2017-02-23T10:58:26.106Z,58.34
2017-02-23T10:59:36.819Z,59.47
2017-02-23T11:00:47.132Z,58.62
2017-02-23T11:01:57.842Z,58.15
2017-02-23T11:03:08.543Z,58.25
2017-02-23T11:04:19.244Z,58.06
2017-02-23T11:05:29.952Z,58.81
2017-02-23T11:06:40.668Z,57.96
2017-02-23T11:07:51.386Z,57.96
2017-02-23T11:09:01.709Z,57.8
2017-02-23T11:10:12.468Z,57.71
2017-02-23T11:11:22.779Z,57.92
2017-02-23T11:12:33.470Z,58.21
2017-02-23T11:13:44.194Z,58.24
2017-02-23T11:14:54.952Z,58.65
2017-02-23T11:16:05.282Z,57.92
2017-02-23T11:17:15.194Z,57.06
2017-02-23T11:18:25.907Z,56.34
2017-02-23T11:19:36.622Z,55.76
2017-02-23T11:20:47.333Z,55.22
2017-02-23T11:21:58.060Z,54.56
2017-02-23T11:23:08.772Z,54.87
2017-02-23T11:24:19.498Z,53.92
2017-02-23T11:25:29.420Z,54.05
2017-02-23T11:26:40.132Z,53.85
2017-02-23T11:27:50.455Z,52.84
2017-02-23T11:29:01.174Z,51.7
2017-02-23T11:30:11.891Z,52.1
2017-02-23T11:31:22.207Z,51.53
2017-02-23T11:32:32.931Z,51.37
2017-02-23T11:33:43.244Z,51.75
2017-02-23T11:34:53.956Z,50.25
2017-02-23T11:36:04.688Z,49.87
2017-02-23T11:37:14.630Z,49.4
2017-02-23T11:38:25.343Z,49.61
2017-02-23T11:39:36.062Z,49.71
2017-02-23T11:40:46.786Z,49.06
2017-02-23T11:41:57.106Z,47.92
2017-02-23T11:43:07.838Z,47.25
2017-02-23T11:44:17.766Z,47.94
2017-02-23T11:45:28.485Z,47.75
2017-02-23T11:46:39.221Z,47.02
2017-02-23T11:47:49.547Z,46.15
2017-02-23T11:49:00.264Z,45.01
2017-02-23T11:50:10.987Z,44.27
2017-02-23T11:51:20.923Z,44.65
2017-02-23T11:52:31.644Z,43.32
2017-02-23T11:53:42.356Z,43.41
2017-02-23T11:54:53.080Z,43.32
2017-02-23T11:56:03.401Z,43.15
2017-02-23T11:57:13.722Z,43.43
2017-02-23T11:58:24.460Z,42.21
2017-02-23T11:59:35.183Z,42.6
2017-02-23T12:00:45.910Z,40.7
2017-02-23T12:01:56.616Z,36.5
2017-02-23T12:03:07.336Z,37.73
2017-02-23T12:04:17.277Z,36.39
2017-02-23T12:05:28.011Z,35.6
2017-02-23T12:06:38.333Z,33.98
2017-02-23T12:07:49.066Z,33.97
2017-02-23T12:08:59.809Z,35.02
2017-02-23T12:10:10.542Z,34.92
2017-02-23T12:11:20.880Z,35.3
2017-02-23T12:12:31.613Z,36.94
2017-02-23T12:13:42.327Z,35.6
2017-02-23T12:14:53.037Z,38.1
2017-02-23T12:16:03.789Z,37.24
2017-02-23T12:17:14.108Z,36.79
2017-02-23T12:18:24.857Z,36.79
2017-02-23T12:19:35.571Z,35.85
2017-02-23T12:20:46.306Z,33.17
2017-02-23T12:21:57.034Z,34.51
2017-02-23T12:23:07.763Z,35
2017-02-23T12:24:18.095Z,31.66
2017-02-23T12:25:28.814Z,30.88
2017-02-23T12:26:39.557Z,31.82
2017-02-23T12:27:49.886Z,32.49
2017-02-23T12:29:00.224Z,32.78
2017-02-23T12:30:10.945Z,31.64
2017-02-23T12:31:21.669Z,30.59
2017-02-23T12:32:32.014Z,31.84
2017-02-23T12:33:42.741Z,31.74
2017-02-23T12:34:53.476Z,31.35
2017-02-23T12:36:03.813Z,31.74
2017-02-23T12:37:13.751Z,30.32
2017-02-23T12:38:24.091Z,29.55
2017-02-23T12:39:34.032Z,29.35
2017-02-23T12:40:44.369Z,28.87
2017-02-23T12:41:55.077Z,29.33
2017-02-23T12:43:05.419Z,31.51
2017-02-23T12:44:16.175Z,30.19
2017-02-23T12:45:26.906Z,29.81
2017-02-23T12:46:37.242Z,31.71
2017-02-23T12:47:47.612Z,33.23
2017-02-23T12:48:57.936Z,32.87
2017-02-23T12:50:08.677Z,35.26
2017-02-23T12:51:19.397Z,34.99
2017-02-23T12:52:29.714Z,34.43
2017-02-23T12:53:40.746Z,33.09
2017-02-23T12:54:51.502Z,32.92
2017-02-23T12:56:02.246Z,31.59
2017-02-23T12:57:12.180Z,33.12
2017-02-23T12:58:22.539Z,32.57
2017-02-23T12:59:33.278Z,31.43
2017-02-23T13:00:44.013Z,31.53
2017-02-23T13:01:54.722Z,31.64
2017-02-23T13:03:05.459Z,30.79
2017-02-23T13:04:15.792Z,30.51
2017-02-23T13:05:26.518Z,29.93
2017-02-23T13:06:37.271Z,30.41
2017-02-23T13:07:47.994Z,30.52
2017-02-23T13:08:58.730Z,26.49
2017-02-23T13:10:09.056Z,28.88
2017-02-23T13:11:19.772Z,27.26
2017-02-23T13:12:30.093Z,28.01
2017-02-23T13:13:40.823Z,28.49
2017-02-23T13:14:51.533Z,28.59
2017-02-23T13:16:02.250Z,29.26
2017-02-23T13:17:12.980Z,28.96
2017-02-23T13:18:23.692Z,28.37
2017-02-23T13:19:34.427Z,29.42
2017-02-23T13:20:45.146Z,29.23
2017-02-23T13:21:55.082Z,29.61
2017-02-23T13:23:05.799Z,29.31
2017-02-23T13:24:16.119Z,29.5
2017-02-23T13:25:26.829Z,28.81
2017-02-23T13:26:37.568Z,28.61
2017-02-23T13:27:47.921Z,28.68
2017-02-23T13:28:58.661Z,29.43
2017-02-23T13:30:09.385Z,29.13
2017-02-23T13:31:19.696Z,29.02
2017-02-23T13:32:30.046Z,30.07
2017-02-23T13:33:40.770Z,30.07
2017-02-23T13:34:51.112Z,29.48
2017-02-23T13:36:01.845Z,29.85
2017-02-23T13:37:12.578Z,31.37
2017-02-23T13:38:23.286Z,30.61
2017-02-23T13:39:34.019Z,30.77
2017-02-23T13:40:44.739Z,31.63
2017-02-23T13:41:55.459Z,31.72
2017-02-23T13:43:06.180Z,31.24
2017-02-23T13:44:16.495Z,30.66
2017-02-23T13:45:27.251Z,31.69
2017-02-23T13:46:37.951Z,32.93
2017-02-23T13:47:47.882Z,33.1
2017-02-23T13:48:58.627Z,32.72
2017-02-23T13:50:09.336Z,32.43
2017-02-23T13:51:19.679Z,32.7
2017-02-23T13:52:30.388Z,33.28
2017-02-23T13:53:41.119Z,33.84
2017-02-23T13:54:51.047Z,34.69
2017-02-23T13:56:01.383Z,35.08
2017-02-23T13:57:12.095Z,35.08
2017-02-23T13:58:22.797Z,33.54
2017-02-23T13:59:33.512Z,35.24
2017-02-23T14:00:44.224Z,36.09
2017-02-23T14:01:54.541Z,36.94
2017-02-23T14:03:05.265Z,37.8
2017-02-23T14:04:15.979Z,37.13
2017-02-23T14:05:26.712Z,37.42
2017-02-23T14:06:37.026Z,37.59
2017-02-23T14:07:47.338Z,37.33
2017-02-23T14:08:57.650Z,38.16
2017-02-23T14:10:08.352Z,37.61
2017-02-23T14:11:18.265Z,36.38
2017-02-23T14:12:28.971Z,35.52
2017-02-23T14:13:39.681Z,33.72
2017-02-23T14:14:50.408Z,34.17
2017-02-23T14:16:00.713Z,35.86
2017-02-23T14:17:11.476Z,36.13
2017-02-23T14:18:22.183Z,37.06
2017-02-23T14:19:32.899Z,37.16
2017-02-23T14:20:43.620Z,37.63
2017-02-23T14:21:54.345Z,38.39
2017-02-23T14:23:05.067Z,38.2
2017-02-23T14:24:15.388Z,39.13
2017-02-23T14:25:26.114Z,39.13
2017-02-23T14:26:36.821Z,39.22
2017-02-23T14:27:47.518Z,39.7
2017-02-23T14:28:58.220Z,39.96
2017-02-23T14:30:08.938Z,39.98
2017-02-23T14:31:19.254Z,39.89
2017-02-23T14:32:29.960Z,39.79
2017-02-23T14:33:40.678Z,39.32
2017-02-23T14:34:51.002Z,39.51
2017-02-23T14:36:01.377Z,39.9
2017-02-23T14:37:12.127Z,39.72
2017-02-23T14:38:22.425Z,39.24
2017-02-23T14:39:32.729Z,39.41
2017-02-23T14:40:43.444Z,40
2017-02-23T14:41:53.759Z,40.38
2017-02-23T14:43:04.078Z,41.14
2017-02-23T14:44:14.389Z,41.24
2017-02-23T14:45:25.114Z,40.66
2017-02-23T14:46:35.828Z,41.14
2017-02-23T14:47:46.568Z,41.24
2017-02-23T14:48:57.281Z,40.95
2017-02-23T14:50:07.998Z,41.33
2017-02-23T14:51:18.320Z,41.24
2017-02-23T14:52:29.035Z,41.42
2017-02-23T14:53:39.746Z,41.52
2017-02-23T14:54:50.447Z,41.71
2017-02-23T14:56:01.144Z,41.52
2017-02-23T14:57:11.861Z,41.5
2017-02-23T14:58:22.567Z,41.88
2017-02-23T14:59:32.878Z,41.88
2017-02-23T15:00:43.577Z,41.97
2017-02-23T15:01:54.301Z,41.97
2017-02-23T15:03:05.031Z,42.07
2017-02-23T15:04:15.352Z,42.25
2017-02-23T15:05:26.063Z,42.07
2017-02-23T15:06:36.768Z,42.07
2017-02-23T15:07:47.471Z,41.88
2017-02-23T15:08:58.212Z,41.88
2017-02-23T15:10:08.524Z,42.16
2017-02-23T15:11:18.840Z,41.69
2017-02-23T15:12:29.542Z,41.69